createdAt,value
2019-05-26T00:00:37.343Z,3.40
2019-05-26T00:01:37.344Z,3.10
2019-05-26T00:02:37.330Z,3.60
2019-05-26T00:03:37.326Z,4.90
2019-05-26T00:04:37.324Z,2.50
2019-05-26T00:05:37.320Z,2.80
2019-05-26T00:06:37.317Z,2.40
2019-05-26T00:07:37.320Z,2.00
2019-05-26T00:08:37.313Z,4.20
2019-05-26T00:09:37.309Z,3.00
2019-05-26T00:10:37.309Z,4.10
2019-05-26T00:11:37.303Z,2.90
2019-05-26T00:12:37.303Z,3.10
2019-05-26T00:13:37.301Z,4.20
2019-05-26T00:14:37.294Z,4.20
2019-05-26T00:15:37.294Z,2.20
2019-05-26T00:16:37.290Z,2.00
2019-05-26T00:17:37.284Z,2.90
2019-05-26T00:18:37.283Z,2.50
2019-05-26T00:19:37.280Z,2.80
2019-05-26T00:20:37.276Z,4.70
2019-05-26T00:21:37.273Z,4.70
2019-05-26T00:22:37.273Z,3.10
2019-05-26T00:23:37.286Z,3.80
2019-05-26T00:24:37.267Z,6.80
2019-05-26T00:25:37.264Z,3.10
2019-05-26T00:26:37.257Z,4.00
2019-05-26T00:27:37.257Z,2.40
2019-05-26T00:28:37.252Z,5.20
2019-05-26T00:29:37.249Z,3.30
2019-05-26T00:30:37.246Z,1.90
2019-05-26T00:31:37.247Z,2.00
2019-05-26T00:32:37.242Z,4.90
2019-05-26T00:33:37.236Z,2.30
2019-05-26T00:34:37.233Z,2.00
2019-05-26T00:35:37.229Z,4.30
2019-05-26T00:36:37.227Z,2.30
2019-05-26T00:37:48.621Z,2.30
2019-05-26T00:38:37.221Z,4.20
2019-05-26T00:39:37.219Z,2.70
2019-05-26T00:40:37.220Z,3.20
2019-05-26T00:41:37.215Z,4.40
2019-05-26T00:42:37.210Z,2.40
2019-05-26T00:43:37.211Z,3.10
2019-05-26T00:44:37.206Z,2.70
2019-05-26T00:45:37.201Z,5.50
2019-05-26T00:46:37.197Z,4.00
2019-05-26T00:47:37.194Z,2.30
2019-05-26T00:48:37.191Z,4.00
2019-05-26T00:49:37.188Z,4.20
2019-05-26T00:50:37.197Z,3.90
2019-05-26T00:51:37.181Z,2.50
2019-05-26T00:52:37.179Z,2.50
2019-05-26T00:53:37.180Z,5.20
2019-05-26T00:54:37.173Z,4.00
2019-05-26T00:55:37.169Z,5.40
2019-05-26T00:56:37.165Z,2.80
2019-05-26T00:57:37.164Z,2.50
2019-05-26T00:58:37.159Z,2.20
2019-05-26T00:59:37.161Z,4.10
2019-05-26T01:00:37.160Z,3.10
2019-05-26T01:01:37.151Z,3.80
2019-05-26T01:02:37.147Z,3.50
2019-05-26T01:03:37.144Z,3.90
2019-05-26T01:04:37.140Z,4.40
2019-05-26T01:05:37.137Z,2.90
2019-05-26T01:06:37.133Z,6.00
2019-05-26T01:07:37.131Z,2.30
2019-05-26T01:08:37.128Z,2.50
2019-05-26T01:09:37.127Z,2.70
2019-05-26T01:10:37.123Z,3.70
2019-05-26T01:11:37.128Z,4.40
2019-05-26T01:12:37.116Z,4.10
2019-05-26T01:13:37.114Z,2.80
2019-05-26T01:14:37.107Z,4.20
2019-05-26T01:15:37.105Z,3.50
2019-05-26T01:16:37.102Z,2.90
2019-05-26T01:17:37.098Z,2.50
2019-05-26T01:18:37.096Z,3.40
2019-05-26T01:19:37.092Z,2.30
2019-05-26T01:20:37.089Z,4.20
2019-05-26T01:21:37.084Z,3.80
2019-05-26T01:22:37.082Z,3.20
2019-05-26T01:23:37.079Z,3.70
2019-05-26T01:24:37.082Z,4.70
2019-05-26T01:25:37.074Z,5.20
2019-05-26T01:26:37.075Z,4.60
2019-05-26T01:27:37.065Z,3.30
2019-05-26T01:28:37.064Z,4.30
2019-05-26T01:29:37.068Z,2.40
2019-05-26T01:30:37.058Z,3.70
2019-05-26T01:31:37.053Z,2.90
2019-05-26T01:32:37.050Z,2.50
2019-05-26T01:33:37.045Z,2.80
2019-05-26T01:34:37.042Z,5.00
2019-05-26T01:35:37.039Z,2.90
2019-05-26T01:36:37.035Z,3.10
2019-05-26T01:37:37.030Z,4.10
2019-05-26T01:38:37.028Z,5.00
2019-05-26T01:39:37.025Z,3.40
2019-05-26T01:40:37.024Z,4.70
2019-05-26T01:41:37.017Z,4.10
2019-05-26T01:42:37.015Z,3.40
2019-05-26T01:43:37.012Z,3.60
2019-05-26T01:44:37.010Z,4.40
2019-05-26T01:45:37.005Z,4.60
2019-05-26T01:46:37.002Z,3.40
2019-05-26T01:47:36.997Z,4.70
2019-05-26T01:48:36.995Z,3.20
2019-05-26T01:49:36.990Z,6.70
2019-05-26T01:50:36.986Z,5.90
2019-05-26T01:51:36.983Z,3.50
2019-05-26T01:52:36.980Z,4.10
2019-05-26T01:53:36.977Z,3.30
2019-05-26T01:54:40.593Z,4.80
2019-05-26T01:55:36.972Z,9.40
2019-05-26T01:56:36.967Z,3.80
2019-05-26T01:57:36.962Z,6.20
2019-05-26T01:58:36.959Z,4.10
2019-05-26T01:59:36.955Z,6.50
2019-05-26T02:00:36.959Z,3.60
2019-05-26T02:01:36.950Z,3.80
2019-05-26T02:02:36.944Z,6.10
2019-05-26T02:03:36.941Z,3.80
2019-05-26T02:04:36.939Z,6.40
2019-05-26T02:05:36.935Z,3.80
2019-05-26T02:06:36.931Z,4.00
2019-05-26T02:07:36.958Z,3.60
2019-05-26T02:08:39.695Z,3.80
2019-05-26T02:09:36.920Z,3.70
2019-05-26T02:10:36.917Z,3.10
2019-05-26T02:11:36.918Z,4.10
2019-05-26T02:12:36.912Z,4.10
2019-05-26T02:13:36.907Z,5.20
2019-05-26T02:14:36.904Z,5.40
2019-05-26T02:15:36.902Z,6.50
2019-05-26T02:16:36.898Z,3.00
2019-05-26T02:17:36.895Z,4.60
2019-05-26T02:18:36.890Z,5.20
2019-05-26T02:19:36.887Z,5.40
2019-05-26T02:20:36.962Z,4.10
2019-05-26T02:21:36.879Z,4.80
2019-05-26T02:22:36.876Z,4.20
2019-05-26T02:23:36.872Z,5.50
2019-05-26T02:24:36.869Z,3.60
2019-05-26T02:25:36.864Z,6.60
2019-05-26T02:26:36.861Z,3.00
2019-05-26T02:27:36.859Z,3.20
2019-05-26T02:28:36.856Z,5.10
2019-05-26T02:29:36.852Z,2.80
2019-05-26T02:30:36.848Z,5.70
2019-05-26T02:31:36.845Z,3.60
2019-05-26T02:32:36.842Z,3.60
2019-05-26T02:33:36.838Z,5.00
2019-05-26T02:34:36.834Z,3.30
2019-05-26T02:35:36.836Z,3.20
2019-05-26T02:36:36.829Z,3.00
2019-05-26T02:37:36.825Z,3.80
2019-05-26T02:38:36.823Z,4.80
2019-05-26T02:39:36.818Z,3.10
2019-05-26T02:40:36.815Z,4.00
2019-05-26T02:41:36.809Z,4.80
2019-05-26T02:42:36.806Z,4.90
2019-05-26T02:43:36.813Z,5.10
2019-05-26T02:44:36.803Z,4.50
2019-05-26T02:45:36.796Z,5.80
2019-05-26T02:46:36.792Z,3.40
2019-05-26T02:47:36.799Z,4.30
2019-05-26T02:48:36.787Z,4.90
2019-05-26T02:49:36.782Z,7.60
2019-05-26T02:50:36.801Z,7.40
2019-05-26T02:51:36.773Z,5.70
2019-05-26T02:52:36.772Z,5.90
2019-05-26T02:53:36.789Z,4.20
2019-05-26T02:54:36.766Z,8.00
2019-05-26T02:55:36.759Z,6.20
2019-05-26T02:56:36.872Z,5.90
2019-05-26T02:57:36.752Z,9.80
2019-05-26T02:58:36.749Z,10.00
2019-05-26T02:59:36.749Z,4.00
2019-05-26T03:00:36.744Z,10.60
2019-05-26T03:01:36.741Z,11.10
2019-05-26T03:02:36.737Z,6.50
2019-05-26T03:03:36.735Z,8.50
2019-05-26T03:04:36.728Z,5.10
2019-05-26T03:05:36.729Z,5.70
2019-05-26T03:06:36.724Z,5.60
2019-05-26T03:07:36.718Z,6.30
2019-05-26T03:08:36.716Z,5.80
2019-05-26T03:09:36.712Z,4.90
2019-05-26T03:10:36.718Z,5.20
2019-05-26T03:11:36.705Z,6.10
2019-05-26T03:12:36.701Z,7.70
2019-05-26T03:13:36.700Z,4.90
2019-05-26T03:14:36.693Z,9.30
2019-05-26T03:15:36.690Z,6.50
2019-05-26T03:16:36.688Z,6.30
2019-05-26T03:17:36.683Z,8.70
2019-05-26T03:18:36.680Z,7.10
2019-05-26T03:19:36.685Z,7.10
2019-05-26T03:20:36.673Z,8.90
2019-05-26T03:21:36.668Z,6.80
2019-05-26T03:22:36.665Z,7.10
2019-05-26T03:23:36.663Z,7.20
2019-05-26T03:24:36.659Z,7.50
2019-05-26T03:25:36.658Z,5.50
2019-05-26T03:26:36.654Z,7.90
2019-05-26T03:27:36.656Z,5.20
2019-05-26T03:28:36.647Z,10.60
2019-05-26T03:29:36.643Z,10.00
2019-05-26T03:30:36.645Z,8.10
2019-05-26T03:31:36.656Z,9.50
2019-05-26T03:32:36.635Z,9.70
2019-05-26T03:33:36.629Z,8.90
2019-05-26T03:34:36.625Z,10.40
2019-05-26T03:35:36.622Z,5.70
2019-05-26T03:36:36.621Z,6.70
2019-05-26T03:37:36.615Z,10.60
2019-05-26T03:38:36.611Z,6.90
2019-05-26T03:39:44.282Z,8.70
2019-05-26T03:40:36.606Z,9.50
2019-05-26T03:41:36.600Z,6.90
2019-05-26T03:42:36.598Z,6.60
2019-05-26T03:43:36.595Z,10.80
2019-05-26T03:44:36.601Z,8.80
2019-05-26T03:45:36.589Z,9.40
2019-05-26T03:46:36.585Z,10.30
2019-05-26T03:47:36.589Z,7.50
2019-05-26T03:48:36.583Z,8.60
2019-05-26T03:49:36.576Z,8.50
2019-05-26T03:50:36.573Z,8.10
2019-05-26T03:51:36.569Z,6.50
2019-05-26T03:52:36.592Z,8.10
2019-05-26T03:53:36.565Z,6.40
2019-05-26T03:54:36.564Z,5.70
2019-05-26T03:55:36.560Z,9.90
2019-05-26T03:56:36.561Z,6.50
2019-05-26T03:57:36.557Z,6.40
2019-05-26T03:58:36.576Z,10.40
2019-05-26T03:59:36.544Z,6.60
2019-05-26T04:00:36.548Z,6.90
2019-05-26T04:01:36.557Z,6.70
2019-05-26T04:02:36.632Z,8.60
2019-05-26T04:03:36.531Z,9.60
2019-05-26T04:04:36.533Z,7.80
2019-05-26T04:05:36.527Z,10.30
2019-05-26T04:06:36.519Z,11.00
2019-05-26T04:07:36.525Z,13.60
2019-05-26T04:08:36.515Z,14.30
2019-05-26T04:09:36.510Z,6.60
2019-05-26T04:10:36.509Z,6.70
2019-05-26T04:11:36.509Z,9.20
2019-05-26T04:12:36.540Z,7.60
2019-05-26T04:13:36.498Z,7.40
2019-05-26T04:14:36.497Z,7.00
2019-05-26T04:15:36.497Z,6.20
2019-05-26T04:16:36.491Z,14.40
2019-05-26T04:17:36.521Z,7.30
2019-05-26T04:18:36.492Z,11.40
2019-05-26T04:19:36.478Z,16.30
2019-05-26T04:20:36.477Z,9.60
2019-05-26T04:21:36.475Z,6.70
2019-05-26T04:22:36.469Z,11.80
2019-05-26T04:23:36.469Z,8.70
2019-05-26T04:24:36.462Z,6.10
2019-05-26T04:25:36.476Z,8.40
2019-05-26T04:26:36.458Z,11.00
2019-05-26T04:27:36.455Z,9.90
2019-05-26T04:28:36.451Z,8.30
2019-05-26T04:29:36.448Z,13.70
2019-05-26T04:30:36.444Z,10.70
2019-05-26T04:31:36.445Z,11.50
2019-05-26T04:32:36.440Z,8.10
2019-05-26T04:33:36.435Z,12.50
2019-05-26T04:34:36.432Z,8.40
2019-05-26T04:35:36.430Z,8.10
2019-05-26T04:36:36.425Z,10.00
2019-05-26T04:37:36.431Z,12.70
2019-05-26T04:38:36.420Z,10.40
2019-05-26T04:39:36.422Z,9.80
2019-05-26T04:40:36.415Z,9.70
2019-05-26T04:41:36.411Z,15.00
2019-05-26T04:42:36.414Z,7.30
2019-05-26T04:43:36.406Z,10.50
2019-05-26T04:44:36.402Z,7.60
2019-05-26T04:45:36.401Z,8.40
2019-05-26T04:46:36.396Z,7.20
2019-05-26T04:47:36.392Z,6.60
2019-05-26T04:48:36.391Z,8.40
2019-05-26T04:49:37.639Z,10.00
2019-05-26T04:50:36.385Z,9.30
2019-05-26T04:51:36.381Z,8.20
2019-05-26T04:52:36.392Z,8.00
2019-05-26T04:53:36.375Z,8.70
2019-05-26T04:54:36.374Z,11.70
2019-05-26T04:55:36.373Z,8.50
2019-05-26T04:56:36.374Z,6.90
2019-05-26T04:57:36.366Z,11.00
2019-05-26T04:58:36.363Z,6.30
2019-05-26T04:59:36.360Z,9.50
2019-05-26T05:00:36.362Z,10.00
2019-05-26T05:01:36.354Z,10.20
2019-05-26T05:02:36.351Z,13.60
2019-05-26T05:03:36.349Z,8.80
2019-05-26T05:04:36.347Z,11.70
2019-05-26T05:05:36.342Z,8.00
2019-05-26T05:06:36.340Z,7.40
2019-05-26T05:07:36.338Z,10.20
2019-05-26T05:08:36.336Z,17.30
2019-05-26T05:09:36.331Z,14.30
2019-05-26T05:10:42.273Z,10.20
2019-05-26T05:11:36.327Z,14.70
2019-05-26T05:12:36.325Z,9.90
2019-05-26T05:13:36.321Z,13.80
2019-05-26T05:14:36.319Z,8.90
2019-05-26T05:15:36.318Z,11.10
2019-05-26T05:16:36.317Z,10.50
2019-05-26T05:17:36.311Z,11.40
2019-05-26T05:18:36.318Z,15.10
2019-05-26T05:19:36.309Z,20.50
2019-05-26T05:20:36.308Z,10.00
2019-05-26T05:21:36.307Z,12.90
2019-05-26T05:22:36.303Z,14.50
2019-05-26T05:23:36.305Z,14.70
2019-05-26T05:24:36.305Z,18.80
2019-05-26T05:25:36.300Z,14.80
2019-05-26T05:26:36.298Z,20.00
2019-05-26T05:27:36.303Z,14.10
2019-05-26T05:28:36.296Z,15.60
2019-05-26T05:29:36.293Z,15.70
2019-05-26T05:30:36.292Z,18.30
2019-05-26T05:31:36.291Z,13.60
2019-05-26T05:32:36.290Z,16.20
2019-05-26T05:33:36.292Z,19.40
2019-05-26T05:34:36.291Z,18.20
2019-05-26T05:35:36.285Z,17.40
2019-05-26T05:36:36.287Z,16.80
2019-05-26T05:37:36.283Z,14.90
2019-05-26T05:38:36.280Z,16.20
2019-05-26T05:39:36.281Z,13.70
2019-05-26T05:40:36.287Z,16.40
2019-05-26T05:41:36.274Z,14.30
2019-05-26T05:42:36.273Z,14.40
2019-05-26T05:43:36.271Z,15.60
2019-05-26T05:44:36.271Z,16.30
2019-05-26T05:45:36.268Z,14.30
2019-05-26T05:46:36.271Z,15.70
2019-05-26T05:47:36.304Z,14.60
2019-05-26T05:48:36.265Z,16.80
2019-05-26T05:49:36.263Z,12.60
2019-05-26T05:50:39.188Z,14.50
2019-05-26T05:51:36.260Z,16.80
2019-05-26T05:52:36.259Z,15.10
2019-05-26T05:53:36.256Z,18.30
2019-05-26T05:54:36.255Z,16.40
2019-05-26T05:55:36.254Z,16.80
2019-05-26T05:56:36.258Z,16.60
2019-05-26T05:57:36.248Z,14.90
2019-05-26T05:58:36.251Z,16.60
2019-05-26T05:59:36.248Z,18.10
2019-05-26T06:00:36.249Z,13.80
2019-05-26T06:01:36.243Z,14.40
2019-05-26T06:02:36.243Z,18.70
2019-05-26T06:03:36.243Z,16.70
2019-05-26T06:04:36.242Z,18.50
2019-05-26T06:05:36.242Z,18.10
2019-05-26T06:06:36.242Z,15.80
2019-05-26T06:07:36.235Z,17.60
2019-05-26T06:08:36.235Z,16.20
2019-05-26T06:09:36.233Z,22.50
2019-05-26T06:10:36.232Z,18.70
2019-05-26T06:11:36.232Z,17.20
2019-05-26T06:12:36.230Z,19.70
2019-05-26T06:13:36.240Z,21.50
2019-05-26T06:14:36.250Z,22.60
2019-05-26T06:15:36.225Z,17.40
2019-05-26T06:16:36.231Z,15.60
2019-05-26T06:17:36.223Z,17.40
2019-05-26T06:18:36.224Z,18.80
2019-05-26T06:19:36.220Z,20.30
2019-05-26T06:20:36.218Z,18.00
2019-05-26T06:21:36.218Z,16.40
2019-05-26T06:22:36.218Z,18.90
2019-05-26T06:23:37.158Z,20.30
2019-05-26T06:24:36.215Z,17.10
2019-05-26T06:25:36.214Z,24.10
2019-05-26T06:26:36.211Z,21.70
2019-05-26T06:27:36.213Z,21.20
2019-05-26T06:28:36.210Z,16.40
2019-05-26T06:29:36.210Z,16.00
2019-05-26T06:30:36.208Z,18.20
2019-05-26T06:31:36.207Z,21.30
2019-05-26T06:32:36.207Z,17.20
2019-05-26T06:33:36.205Z,18.90
2019-05-26T06:34:36.204Z,17.00
2019-05-26T06:35:36.204Z,21.40
2019-05-26T06:36:36.207Z,18.30
2019-05-26T06:37:36.200Z,19.00
2019-05-26T06:38:36.201Z,22.20
2019-05-26T06:39:36.200Z,19.00
2019-05-26T06:40:36.200Z,23.40
2019-05-26T06:41:36.202Z,22.70
2019-05-26T06:42:36.197Z,21.70
2019-05-26T06:43:36.196Z,25.90
2019-05-26T06:44:52.373Z,22.60
2019-05-26T06:45:36.197Z,21.10
2019-05-26T06:46:36.195Z,22.50
2019-05-26T06:47:36.204Z,21.50
2019-05-26T06:48:36.196Z,22.00
2019-05-26T06:49:36.194Z,20.20
2019-05-26T06:50:36.192Z,20.90
2019-05-26T06:51:36.192Z,18.70
2019-05-26T06:52:36.198Z,23.20
2019-05-26T06:53:37.412Z,20.10
2019-05-26T06:54:36.189Z,21.60
2019-05-26T06:55:36.190Z,23.20
2019-05-26T06:56:36.190Z,26.30
2019-05-26T06:57:36.188Z,20.20
2019-05-26T06:58:36.189Z,26.60
2019-05-26T06:59:36.187Z,28.00
2019-05-26T07:00:36.187Z,25.40
2019-05-26T07:01:36.187Z,24.80
2019-05-26T07:02:36.196Z,22.60
2019-05-26T07:03:36.186Z,20.90
2019-05-26T07:04:36.185Z,20.40
2019-05-26T07:05:36.184Z,24.40
2019-05-26T07:06:36.187Z,26.10
2019-05-26T07:07:36.182Z,22.80
2019-05-26T07:08:36.182Z,25.40
2019-05-26T07:09:36.182Z,25.40
2019-05-26T07:10:36.182Z,19.60
2019-05-26T07:11:50.057Z,24.60
2019-05-26T07:12:36.183Z,21.10
2019-05-26T07:13:36.183Z,22.30
2019-05-26T07:14:36.181Z,22.20
2019-05-26T07:15:36.181Z,24.40
2019-05-26T07:16:38.488Z,22.90
2019-05-26T07:17:36.180Z,18.40
2019-05-26T07:18:36.182Z,27.00
2019-05-26T07:19:36.180Z,22.70
2019-05-26T07:20:36.181Z,21.90
2019-05-26T07:21:36.179Z,21.50
2019-05-26T07:22:36.180Z,21.80
2019-05-26T07:23:36.184Z,17.80
2019-05-26T07:24:36.182Z,18.40
2019-05-26T07:25:36.182Z,21.20
2019-05-26T07:26:36.184Z,22.00
2019-05-26T07:27:36.185Z,16.80
2019-05-26T07:28:36.185Z,17.30
2019-05-26T07:29:36.184Z,16.90
2019-05-26T07:30:36.186Z,24.70
2019-05-26T07:31:36.187Z,21.60
2019-05-26T07:32:36.192Z,17.90
2019-05-26T07:33:36.204Z,20.80
2019-05-26T07:34:36.189Z,23.10
2019-05-26T07:35:36.189Z,14.10
2019-05-26T07:36:36.191Z,21.90
2019-05-26T07:37:36.209Z,19.80
2019-05-26T07:38:36.193Z,23.70
2019-05-26T07:39:36.205Z,19.60
2019-05-26T07:40:36.197Z,16.20
2019-05-26T07:41:36.197Z,19.80
2019-05-26T07:42:36.200Z,22.80
2019-05-26T07:43:36.201Z,16.10
2019-05-26T07:44:36.199Z,16.80
2019-05-26T07:45:36.203Z,16.50
2019-05-26T07:46:36.200Z,17.60
2019-05-26T07:47:36.207Z,18.60
2019-05-26T07:48:36.377Z,16.90
2019-05-26T07:49:36.203Z,17.80
2019-05-26T07:50:36.206Z,16.50
2019-05-26T07:51:36.207Z,17.50
2019-05-26T07:52:36.220Z,17.60
2019-05-26T07:53:36.208Z,17.70
2019-05-26T07:54:36.211Z,18.80
2019-05-26T07:55:36.211Z,19.50
2019-05-26T07:56:36.213Z,17.30
2019-05-26T07:57:36.212Z,23.00
2019-05-26T07:58:36.215Z,16.90
2019-05-26T07:59:36.215Z,18.10
2019-05-26T08:00:36.227Z,18.10
2019-05-26T08:01:36.638Z,21.00
2019-05-26T08:02:36.221Z,18.10
2019-05-26T08:03:36.219Z,18.30
2019-05-26T08:04:36.221Z,18.90
2019-05-26T08:05:36.222Z,16.60
2019-05-26T08:06:36.223Z,17.80
2019-05-26T08:07:36.227Z,15.20
2019-05-26T08:08:36.227Z,20.60
2019-05-26T08:09:36.228Z,16.70
2019-05-26T08:10:36.229Z,14.60
2019-05-26T08:11:36.231Z,17.50
2019-05-26T08:12:36.234Z,16.60
2019-05-26T08:13:36.235Z,12.30
2019-05-26T08:14:36.238Z,14.50
2019-05-26T08:15:36.238Z,15.80
2019-05-26T08:16:36.241Z,19.20
2019-05-26T08:17:36.261Z,15.30
2019-05-26T08:18:36.242Z,12.90
2019-05-26T08:19:36.245Z,11.90
2019-05-26T08:20:36.246Z,11.70
2019-05-26T08:21:36.248Z,16.80
2019-05-26T08:22:36.255Z,15.00
2019-05-26T08:23:36.252Z,15.00
2019-05-26T08:24:36.255Z,13.70
2019-05-26T08:25:36.257Z,14.90
2019-05-26T08:26:36.257Z,17.90
2019-05-26T08:27:36.262Z,15.10
2019-05-26T08:28:36.262Z,16.20
2019-05-26T08:29:36.261Z,14.90
2019-05-26T08:30:36.265Z,13.00
2019-05-26T08:31:36.267Z,13.30
2019-05-26T08:32:36.269Z,13.20
2019-05-26T08:33:36.268Z,13.70
2019-05-26T08:34:36.274Z,15.90
2019-05-26T08:35:36.275Z,12.00
2019-05-26T08:36:36.277Z,11.10
2019-05-26T08:37:36.277Z,10.20
2019-05-26T08:38:36.278Z,15.40
2019-05-26T08:39:36.280Z,12.40
2019-05-26T08:40:36.283Z,12.00
2019-05-26T08:41:36.289Z,11.70
2019-05-26T08:42:44.212Z,11.20
2019-05-26T08:43:36.292Z,11.80
2019-05-26T08:44:36.291Z,8.80
2019-05-26T08:45:36.292Z,10.10
2019-05-26T08:46:36.292Z,10.50
2019-05-26T08:47:36.296Z,11.60
2019-05-26T08:48:36.297Z,14.10
2019-05-26T08:49:36.296Z,11.30
2019-05-26T08:50:36.300Z,11.10
2019-05-26T08:51:36.301Z,10.10
2019-05-26T08:52:36.302Z,12.10
2019-05-26T08:53:36.304Z,12.90
2019-05-26T08:54:36.306Z,8.80
2019-05-26T08:55:36.307Z,8.60
2019-05-26T08:56:36.308Z,9.60
2019-05-26T08:57:36.309Z,10.30
2019-05-26T08:58:36.310Z,9.00
2019-05-26T08:59:36.313Z,9.60
2019-05-26T09:00:36.314Z,8.60
2019-05-26T09:01:36.314Z,11.50
2019-05-26T09:02:36.317Z,9.10
2019-05-26T09:03:36.319Z,9.60
2019-05-26T09:04:36.320Z,8.90
2019-05-26T09:05:36.321Z,11.00
2019-05-26T09:06:36.323Z,12.50
2019-05-26T09:07:36.328Z,10.20
2019-05-26T09:08:36.327Z,10.50
2019-05-26T09:09:36.332Z,11.90
2019-05-26T09:10:36.331Z,10.00
2019-05-26T09:11:36.335Z,7.60
2019-05-26T09:12:36.334Z,9.90
2019-05-26T09:13:36.336Z,11.10
2019-05-26T09:14:36.355Z,13.70
2019-05-26T09:15:36.341Z,12.30
2019-05-26T09:16:36.344Z,9.00
2019-05-26T09:17:36.344Z,10.10
2019-05-26T09:18:36.348Z,10.10
2019-05-26T09:19:36.350Z,7.40
2019-05-26T09:20:36.352Z,9.50
2019-05-26T09:21:36.356Z,8.80
2019-05-26T09:22:36.356Z,16.20
2019-05-26T09:23:36.360Z,11.10
2019-05-26T09:24:36.361Z,8.80
2019-05-26T09:25:36.364Z,6.80
2019-05-26T09:26:36.367Z,7.40
2019-05-26T09:27:36.370Z,8.80
2019-05-26T09:28:36.373Z,7.20
2019-05-26T09:29:36.376Z,9.70
2019-05-26T09:30:36.379Z,7.00
2019-05-26T09:31:36.395Z,8.00
2019-05-26T09:32:36.385Z,7.10
2019-05-26T09:33:36.390Z,8.60
2019-05-26T09:34:36.390Z,7.80
2019-05-26T09:35:36.397Z,7.10
2019-05-26T09:36:36.400Z,5.90
2019-05-26T09:37:36.402Z,5.80
2019-05-26T09:38:36.405Z,7.00
2019-05-26T09:39:36.408Z,9.00
2019-05-26T09:40:36.412Z,6.90
2019-05-26T09:41:36.416Z,5.60
2019-05-26T09:42:36.421Z,6.30
2019-05-26T09:43:36.423Z,6.30
2019-05-26T09:44:36.427Z,6.10
2019-05-26T09:45:36.429Z,6.70
2019-05-26T09:46:36.433Z,12.40
2019-05-26T09:47:36.445Z,6.80
2019-05-26T09:48:36.443Z,7.10
2019-05-26T09:49:36.445Z,12.40
2019-05-26T09:50:36.450Z,10.50
2019-05-26T09:51:36.455Z,7.00
2019-05-26T09:52:36.459Z,8.10
2019-05-26T09:53:36.461Z,11.60
2019-05-26T09:54:36.470Z,7.10
2019-05-26T09:55:36.472Z,5.70
2019-05-26T09:56:36.475Z,8.60
2019-05-26T09:57:36.480Z,7.20
2019-05-26T09:58:36.484Z,7.30
2019-05-26T09:59:36.500Z,10.50
2019-05-26T10:00:36.493Z,7.10
2019-05-26T10:01:36.497Z,5.10
2019-05-26T10:02:36.503Z,5.80
2019-05-26T10:03:36.506Z,8.50
2019-05-26T10:04:36.510Z,6.00
2019-05-26T10:05:36.514Z,5.60
2019-05-26T10:06:36.518Z,8.30
2019-05-26T10:07:36.525Z,7.90
2019-05-26T10:08:36.529Z,6.40
2019-05-26T10:09:36.534Z,6.60
2019-05-26T10:10:36.539Z,10.90
2019-05-26T10:11:36.542Z,7.20
2019-05-26T10:12:36.570Z,7.10
2019-05-26T10:13:36.551Z,5.10
2019-05-26T10:14:36.557Z,5.90
2019-05-26T10:15:36.566Z,5.70
2019-05-26T10:16:36.567Z,6.00
2019-05-26T10:17:36.570Z,5.30
2019-05-26T10:18:36.577Z,6.60
2019-05-26T10:19:36.584Z,5.50
2019-05-26T10:20:36.586Z,8.90
2019-05-26T10:21:36.590Z,6.30
2019-05-26T10:22:36.596Z,4.30
2019-05-26T10:23:36.606Z,4.70
2019-05-26T10:24:36.606Z,5.70
2019-05-26T10:25:36.610Z,7.40
2019-05-26T10:26:36.615Z,4.80
2019-05-26T10:27:36.621Z,7.80
2019-05-26T10:28:36.629Z,5.00
2019-05-26T10:29:36.666Z,4.90
2019-05-26T10:30:36.637Z,5.30
2019-05-26T10:31:36.641Z,4.80
2019-05-26T10:32:36.648Z,4.90
2019-05-26T10:33:36.650Z,4.40
2019-05-26T10:34:36.661Z,4.30
2019-05-26T10:35:36.663Z,4.00
2019-05-26T10:36:36.666Z,4.30
2019-05-26T10:37:36.671Z,6.40
2019-05-26T10:38:36.676Z,4.60
2019-05-26T10:39:36.682Z,7.70
2019-05-26T10:40:36.687Z,4.40
2019-05-26T10:41:36.699Z,5.10
2019-05-26T10:42:36.696Z,9.40
2019-05-26T10:43:46.903Z,5.10
2019-05-26T10:44:36.708Z,5.90
2019-05-26T10:45:36.712Z,5.80
2019-05-26T10:46:36.718Z,5.30
2019-05-26T10:47:36.723Z,4.90
2019-05-26T10:48:36.729Z,6.10
2019-05-26T10:49:36.738Z,4.70
2019-05-26T10:50:36.740Z,8.60
2019-05-26T10:51:36.745Z,6.00
2019-05-26T10:52:36.754Z,4.40
2019-05-26T10:53:36.755Z,5.10
2019-05-26T10:54:36.762Z,7.80
2019-05-26T10:55:36.766Z,5.40
2019-05-26T10:56:36.772Z,7.20
2019-05-26T10:57:36.781Z,5.40
2019-05-26T10:58:36.782Z,6.40
2019-05-26T10:59:36.787Z,7.70
2019-05-26T11:00:36.795Z,10.30
2019-05-26T11:01:36.799Z,5.60
2019-05-26T11:02:36.824Z,5.20
2019-05-26T11:03:36.813Z,9.50
2019-05-26T11:04:36.814Z,6.60
2019-05-26T11:05:36.819Z,5.10
2019-05-26T11:06:36.824Z,4.80
2019-05-26T11:07:36.830Z,5.90
2019-05-26T11:08:36.835Z,10.00
2019-05-26T11:09:36.901Z,5.80
2019-05-26T11:10:36.862Z,7.70
2019-05-26T11:11:36.853Z,6.10
2019-05-26T11:12:36.856Z,7.80
2019-05-26T11:13:36.866Z,5.00
2019-05-26T11:14:36.864Z,5.60
2019-05-26T11:15:36.871Z,5.10
2019-05-26T11:16:36.878Z,9.90
2019-05-26T11:17:36.881Z,4.60
2019-05-26T11:18:36.885Z,5.00
2019-05-26T11:19:36.893Z,5.80
2019-05-26T11:20:36.896Z,3.90
2019-05-26T11:21:36.901Z,4.60
2019-05-26T11:22:36.905Z,5.20
2019-05-26T11:23:36.911Z,5.40
2019-05-26T11:24:36.918Z,4.00
2019-05-26T11:25:36.922Z,4.70
2019-05-26T11:26:36.929Z,7.40
2019-05-26T11:27:36.933Z,4.40
2019-05-26T11:28:36.939Z,5.80
2019-05-26T11:29:36.942Z,3.90
2019-05-26T11:30:36.948Z,6.00
2019-05-26T11:31:36.953Z,5.10
2019-05-26T11:32:36.963Z,4.30
2019-05-26T11:33:36.965Z,3.70
2019-05-26T11:34:36.969Z,4.00
2019-05-26T11:35:36.976Z,4.20
2019-05-26T11:36:36.981Z,7.20
2019-05-26T11:37:36.988Z,4.30
2019-05-26T11:38:36.991Z,4.50
2019-05-26T11:39:36.997Z,4.70
2019-05-26T11:40:37.008Z,4.70
2019-05-26T11:41:37.006Z,5.00
2019-05-26T11:42:37.011Z,5.20
2019-05-26T11:43:37.017Z,4.00
2019-05-26T11:44:37.022Z,5.80
2019-05-26T11:45:37.074Z,4.90
2019-05-26T11:46:37.037Z,3.70
2019-05-26T11:47:37.043Z,4.20
2019-05-26T11:48:39.133Z,5.80
2019-05-26T11:49:37.051Z,4.10
2019-05-26T11:50:37.055Z,4.00
2019-05-26T11:51:37.069Z,7.80
2019-05-26T11:52:37.066Z,4.00
2019-05-26T11:53:37.071Z,4.00
2019-05-26T11:54:37.084Z,9.10
2019-05-26T11:55:37.083Z,7.20
2019-05-26T11:56:37.089Z,5.50
2019-05-26T11:57:37.505Z,3.80
2019-05-26T11:58:37.099Z,4.30
2019-05-26T11:59:37.110Z,5.10
2019-05-26T12:00:37.112Z,4.50
2019-05-26T12:01:37.128Z,3.70
2019-05-26T12:02:37.122Z,4.30
2019-05-26T12:03:37.129Z,3.40
2019-05-26T12:04:37.135Z,4.80
2019-05-26T12:05:37.139Z,15.90
2019-05-26T12:06:37.146Z,9.10
2019-05-26T12:07:37.176Z,4.60
2019-05-26T12:08:37.158Z,4.70
2019-05-26T12:09:37.170Z,4.00
2019-05-26T12:10:37.169Z,7.20
2019-05-26T12:11:37.176Z,4.10
2019-05-26T12:12:37.179Z,4.90
2019-05-26T12:13:37.184Z,7.00
2019-05-26T12:14:37.191Z,7.00
2019-05-26T12:15:37.204Z,3.40
2019-05-26T12:16:37.202Z,5.00
2019-05-26T12:17:37.206Z,5.30
2019-05-26T12:18:37.213Z,3.30
2019-05-26T12:19:37.217Z,4.70
2019-05-26T12:20:37.224Z,4.90
2019-05-26T12:21:37.229Z,7.30
2019-05-26T12:22:37.233Z,3.20
2019-05-26T12:23:37.239Z,3.80
2019-05-26T12:24:37.248Z,8.00
2019-05-26T12:25:37.249Z,3.50
2019-05-26T12:26:37.257Z,4.40
2019-05-26T12:27:37.264Z,3.90
2019-05-26T12:28:37.265Z,4.30
2019-05-26T12:29:37.269Z,3.90
2019-05-26T12:30:37.283Z,4.60
2019-05-26T12:31:37.282Z,5.00
2019-05-26T12:32:37.288Z,4.50
2019-05-26T12:33:37.292Z,6.90
2019-05-26T12:34:37.297Z,3.60
2019-05-26T12:35:37.303Z,4.20
2019-05-26T12:36:39.370Z,7.30
2019-05-26T12:37:37.314Z,3.80
2019-05-26T12:38:37.319Z,4.80
2019-05-26T12:39:37.324Z,4.00
2019-05-26T12:40:37.331Z,3.50
2019-05-26T12:41:37.524Z,4.50
2019-05-26T12:42:37.343Z,6.00
2019-05-26T12:43:37.349Z,5.80
2019-05-26T12:44:49.111Z,3.80
2019-05-26T12:45:37.358Z,4.10
2019-05-26T12:46:37.362Z,3.00
2019-05-26T12:47:37.368Z,4.40
2019-05-26T12:48:37.374Z,3.70
2019-05-26T12:49:37.379Z,3.50
2019-05-26T12:50:37.383Z,3.40
2019-05-26T12:51:37.389Z,5.10
2019-05-26T12:52:37.397Z,8.70
2019-05-26T12:53:37.401Z,4.60
2019-05-26T12:54:37.405Z,4.40
2019-05-26T12:55:37.412Z,3.70
2019-05-26T12:56:37.418Z,4.10
2019-05-26T12:57:37.422Z,7.20
2019-05-26T12:58:37.426Z,5.30
2019-05-26T12:59:37.432Z,3.60
2019-05-26T13:00:48.346Z,7.60
2019-05-26T13:01:37.442Z,3.70
2019-05-26T13:02:37.447Z,10.90
2019-05-26T13:03:37.455Z,3.30
2019-05-26T13:04:37.460Z,3.20
2019-05-26T13:05:37.464Z,5.00
2019-05-26T13:06:37.487Z,3.70
2019-05-26T13:07:37.532Z,3.40
2019-05-26T13:08:37.491Z,7.00
2019-05-26T13:09:37.497Z,3.70